Latest Weather Observations for Camooweal

IDD60801

Issued at 7:01 am CST Saturday 18 August 2018 (issued every 10 minutes, with the page automatically refreshed every 10 minutes)

About weather observations | Map of weather stations | Latest weather observations for NT | Other Formats
Station Details ID: 037010 Name: CAMOOWEAL TOWNSHIP Lat: -19.92 Lon: 138.12 Height: 231.2 m
Data from the previous 72 hours. | See also: Recent months at Camooweal
Date/Time
CST
Temp
°C
App
Temp
°C
Dew
Point
°C
Rel
Hum
%
Delta-T
°C
Wind Press
QNH
hPa
Press
MSL
hPa
Rain since
9am
mm
Dir  Spd
km/h
Gust
km/h
Spd
kts
Gust
kts
18/07:00am 9.2 4.7 -11.4 22 6.3 SSW 7 9 4 5 1018.3 1017.7 0.0
18/06:30am 9.2 4.6 -12.6 20 6.5 SSW 7 11 4 6 1017.9 1017.2 0.0
18/06:00am 9.8 5.6 -10.3 23 6.4 SSW 6 9 3 5 1017.6 1016.9 0.0
18/05:30am 9.2 4.4 -10.3 24 6.1 SSW 9 15 5 8 1017.2 1016.5 0.0
18/05:00am 10.1 5.7 -10.1 23 6.5 SW 7 9 4 5 1016.8 1016.1 0.0
18/04:30am 9.8 5.2 -12.7 19 6.8 SSE 7 9 4 5 1016.6 1015.9 0.0
18/04:00am 10.0 5.4 -12.5 19 6.8 SSE 7 9 4 5 1016.7 1016.0 0.0
18/03:30am 10.1 5.8 -9.5 24 6.4 SSW 7 9 4 5 1016.7 1016.0 0.0
18/03:00am 10.5 6.2 -12.1 19 7.0 SSW 6 9 3 5 1016.5 1015.8 0.0
18/02:30am 12.2 9.0 -11.4 18 7.6 CALM 0 0 0 0 1016.4 1015.7 0.0
18/02:00am 12.1 7.8 -12.2 17 7.7 WSW 6 9 3 5 1016.4 1015.7 0.0
18/01:30am 13.1 10.0 -10.0 19 7.7 CALM 0 0 0 0 1016.5 1015.8 0.0
18/01:00am 13.8 10.7 -10.1 18 8.1 CALM 0 6 0 3 1016.4 1015.7 0.0
18/12:30am 13.7 10.3 -10.2 18 8.0 SE 2 7 1 4 1016.5 1015.8 0.0
18/12:00am 15.1 10.2 -11.3 15 8.8 SW 9 13 5 7 1016.3 1015.6 0.0
 
Date/Time
CST
Temp
°C
App
Temp
°C
Dew
Point
°C
Rel
Hum
%
Delta-T
°C
Wind Press
QNH
hPa
Press
MSL
hPa
Rain since
9am
mm
Dir  Spd
km/h
Gust
km/h
Spd
kts
Gust
kts
17/11:30pm 16.2 11.7 -11.3 14 9.3 SSW 7 9 4 5 1016.3 1015.6 0.0
17/11:00pm 16.8 12.3 -11.7 13 9.7 S 7 11 4 6 1016.2 1015.5 0.0
17/10:30pm 17.8 13.0 -10.0 14 9.9 SSW 9 9 5 5 1016.1 1015.4 0.0
17/10:00pm 18.1 13.4 -9.8 14 10.0 SSW 9 11 5 6 1016.1 1015.4 0.0
17/09:30pm 18.2 14.0 -9.7 14 10.0 S 6 19 3 10 1016.0 1015.3 0.0
17/09:00pm 19.2 15.1 -8.9 14 10.4 SSE 6 7 3 4 1015.6 1014.9 0.0
17/08:30pm 20.3 16.2 -9.0 13 11.0 S 6 7 3 4 1015.3 1014.6 0.0
17/08:00pm 20.5 16.1 -9.8 12 11.2 SSE 7 9 4 5 1014.8 1014.2 0.0
17/07:30pm 21.8 17.5 -8.8 12 11.7 S 7 9 4 5 1014.4 1013.8 0.0
17/07:00pm 21.9 16.8 -9.9 11 11.9 S 11 13 6 7 1013.8 1013.1 0.0
17/06:30pm 23.6 18.1 -9.8 10 12.8 S 13 13 7 7 1013.5 1012.8 0.0
17/06:00pm 26.5 21.1 -8.9 9 14.2 S 13 17 7 9 1013.3 1012.6 0.0
17/05:30pm 28.7 22.6 -7.3 9 15.1 SSE 17 24 9 13 1013.0 1012.3 0.0
17/05:00pm 29.6 23.8 -8.1 8 15.8 S 15 20 8 11 1012.8 1012.1 0.0
17/04:30pm 29.6 23.2 -6.6 9 15.5 S 19 24 10 13 1012.6 1011.9 0.0
17/04:00pm 30.0 25.4 -7.8 8 15.9 SSW 9 17 5 9 1012.5 1011.8 0.0
17/03:30pm 30.3 25.4 -7.6 8 16.1 SSE 11 20 6 11 1012.5 1011.8 0.0
17/03:00pm 29.9 24.5 -7.9 8 15.9 S 13 17 7 9 1012.7 1012.0 0.0
17/02:30pm 29.8 25.2 -8.0 8 15.9 NE 9 17 5 9 1013.0 1012.3 0.0
17/02:00pm 29.9 24.9 -7.9 8 15.9 E 11 22 6 12 1013.3 1012.6 0.0
17/01:30pm 29.9 24.9 -7.9 8 15.9 ENE 11 24 6 13 1013.7 1013.0 0.0
17/01:00pm 29.2 24.3 -6.9 9 15.3 SSE 11 17 6 9 1014.2 1013.6 0.0
17/12:30pm 29.3 24.8 -6.8 9 15.4 W 9 17 5 9 1014.8 1014.2 0.0
17/12:00pm 29.2 25.1 -6.9 9 15.3 NNW 7 15 4 8 1015.4 1014.7 0.0
17/11:30am 28.6 23.7 -7.3 9 15.1 SE 11 24 6 13 1015.9 1015.2 0.0
17/11:00am 28.4 23.8 -7.5 9 15.0 ESE 9 17 5 9 1016.4 1015.7 0.0
17/10:30am 27.4 22.0 -8.2 9 14.5 ESE 13 24 7 13 1016.7 1016.0 0.0
17/10:00am 27.5 21.7 -8.2 9 14.6 ESE 15 24 8 13 1016.9 1016.2 0.0
17/09:30am 26.3 20.2 -7.7 10 13.9 ESE 17 24 9 13 1017.0 1016.3 0.0
17/09:00am 23.8 17.6 -8.4 11 12.7 ESE 17 20 9 11 1017.0 1016.3 0.0
17/08:30am 20.9 16.3 -8.5 13 11.2 SE 9 13 5 7 1016.9 1016.2 0.0
17/08:22am 19.3 15.1 -7.9 15 10.3 SE 7 11 4 6 1016.9 1016.2 0.0
17/08:00am 14.0 11.0 -9.2 19 8.0 CALM 0 0 0 0 1016.8 1016.1 0.0
17/07:30am 10.1 6.8 -8.5 26 6.2 SW 2 13 1 7 1016.6 1015.9 0.0
17/07:00am 9.9 6.6 -8.2 27 6.1 SSW 2 6 1 3 1016.2 1015.5 0.0
17/06:30am 8.2 3.8 -10.6 25 5.8 SSW 7 9 4 5 1016.0 1015.3 0.0
17/06:00am 7.5 4.5 -9.4 29 5.3 CALM 0 0 0 0 1015.6 1014.9 0.0
17/05:30am 8.2 5.2 -9.2 28 5.6 CALM 0 0 0 0 1015.3 1014.6 0.0
17/05:00am 8.4 5.3 -10.5 25 5.9 CALM 0 0 0 0 1014.8 1014.2 0.0
17/04:30am 8.1 5.0 -11.2 24 5.9 CALM 0 0 0 0 1014.6 1014.0 0.0
17/04:00am 9.3 6.1 -11.9 21 6.5 CALM 0 0 0 0 1014.7 1014.1 0.0
17/03:30am 10.4 6.3 -13.6 17 7.1 ENE 4 7 2 4 1014.7 1014.1 0.0
17/03:00am 11.2 7.6 -12.2 18 7.3 WSW 2 6 1 3 1014.8 1014.2 0.0
17/02:30am 12.0 8.1 -11.5 18 7.5 NE 4 7 2 4 1014.9 1014.3 0.0
17/02:00am 11.7 7.1 -13.2 16 7.6 WSW 7 9 4 5 1015.0 1014.4 0.0
17/01:30am 11.9 8.7 -12.3 17 7.6 CALM 0 0 0 0 1015.2 1014.5 0.0
17/01:00am 12.3 7.7 -13.6 15 7.9 SW 7 9 4 5 1015.4 1014.7 0.0
17/12:30am 12.8 8.3 -12.4 16 8.0 SSW 7 9 4 5 1015.5 1014.8 0.0
17/12:00am 13.6 9.1 -11.0 17 8.1 SW 7 9 4 5 1015.3 1014.6 0.0
 
Date/Time
CST
Temp
°C
App
Temp
°C
Dew
Point
°C
Rel
Hum
%
Delta-T
°C
Wind Press
QNH
hPa
Press
MSL
hPa
Rain since
9am
mm
Dir  Spd
km/h
Gust
km/h
Spd
kts
Gust
kts
16/11:30pm 14.5 9.9 -13.5 13 8.9 SSW 7 7 4 4 1015.3 1014.6 0.0
16/11:00pm 15.6 11.0 -12.7 13 9.3 SW 7 9 4 5 1015.3 1014.6 0.0
16/10:30pm 15.6 10.7 -11.8 14 9.1 SSW 9 11 5 6 1015.2 1014.5 0.0
16/10:00pm 16.8 11.9 -11.7 13 9.7 SSW 9 11 5 6 1014.9 1014.3 0.0
16/09:30pm 17.2 12.7 -11.4 13 9.8 SSW 7 9 4 5 1014.8 1014.2 0.0
16/09:00pm 17.6 12.8 -10.2 14 9.8 SSW 9 11 5 6 1014.7 1014.1 0.0
16/08:30pm 18.1 12.9 -10.7 13 10.1 SSW 11 13 6 7 1014.4 1013.8 0.0
16/08:00pm 20.2 15.4 -10.1 12 11.1 SW 9 13 5 7 1014.1 1013.4 0.0
16/07:30pm 20.4 15.2 -11.0 11 11.3 S 11 13 6 7 1013.7 1013.0 0.0
16/07:00pm 21.4 16.5 -11.4 10 11.9 SSE 9 11 5 6 1013.5 1012.8 0.0
16/06:30pm 22.6 17.7 -11.8 9 12.5 SSE 9 9 5 5 1013.1 1012.4 0.0
16/06:00pm 25.1 20.2 -11.4 8 13.8 SSE 9 11 5 6 1012.9 1012.2 0.0
16/05:30pm 27.7 22.5 -11.2 7 15.1 S 11 17 6 9 1012.7 1012.0 0.0
16/05:00pm 28.6 23.0 -10.5 7 15.5 SSW 13 19 7 10 1012.7 1012.0 0.0
16/04:30pm 28.8 23.6 -10.4 7 15.6 SSE 11 15 6 8 1012.5 1011.8 0.0
16/04:00pm 29.1 23.9 -10.2 7 15.8 SW 11 17 6 9 1012.5 1011.8 0.0
16/03:30pm 29.4 24.6 -9.9 7 15.9 WSW 9 15 5 8 1012.7 1012.0 0.0
16/03:00pm 29.8 25.6 -9.7 7 16.1 SW 6 15 3 8 1012.8 1012.1 0.0
16/02:30pm 29.2 24.0 -10.1 7 15.8 W 11 20 6 11 1013.1 1012.4 0.0
16/02:00pm 29.4 24.3 -9.9 7 15.9 SE 11 17 6 9 1013.7 1013.0 0.0
16/01:30pm 29.0 23.8 -10.2 7 15.7 SSE 11 20 6 11 1014.3 1013.7 0.0
16/01:00pm 28.8 24.1 -8.7 8 15.4 SW 9 19 5 10 1015.0 1014.4 0.0
16/12:30pm 28.2 23.4 -10.8 7 15.3 NNE 9 15 5 8 1015.7 1015.0 0.0
16/12:00pm 29.2 24.9 -8.4 8 15.6 NNE 7 17 4 9 1016.2 1015.5 0.0
16/11:30am 28.0 23.7 -9.3 8 15.0 NE 7 13 4 7 1016.8 1016.1 0.0
16/11:00am 27.4 23.0 -9.7 8 14.8 S 7 15 4 8 1017.5 1016.8 0.0
16/10:30am 26.8 21.6 -10.2 8 14.5 SE 11 19 6 10 1017.8 1017.1 0.0
16/10:00am 26.0 20.9 -9.3 9 14.0 SE 11 17 6 9 1018.0 1017.4 0.0
16/09:30am 24.5 19.8 -9.1 10 13.1 ESE 9 15 5 8 1018.2 1017.6 0.0
16/09:00am 22.1 17.8 -8.6 12 11.8 ESE 7 13 4 7 1018.0 1017.4 0.0
16/08:30am 18.3 14.5 -9.6 14 10.1 E 4 6 2 3 1017.8 1017.1 0.0
16/08:00am 14.1 10.8 -8.5 20 7.9 NE 2 7 1 4 1017.7 1017.0 0.0
16/07:59am 14.0 10.7 -8.6 20 7.9 ENE 2 7 1 4 1017.6 1016.9 0.0
16/07:30am 8.9 5.9 -9.1 27 5.8 CALM 0 0 0 0 1017.4 1016.7 0.0
16/07:00am 8.7 5.7 -9.7 26 5.9 CALM 0 0 0 0 1017.2 1016.5 0.0
16/06:30am 7.7 4.5 -11.6 24 5.8 CALM 0 0 0 0 1017.0 1016.3 0.0
16/06:00am 8.4 5.3 -10.5 25 5.9 CALM 0 6 0 3 1016.7 1016.0 0.0
16/05:30am 8.4 4.2 -10.5 25 5.9 SW 6 7 3 4 1016.4 1015.7 0.0
16/05:00am 8.3 4.1 -10.5 25 5.8 SSW 6 6 3 3 1016.2 1015.5 0.0
16/04:30am 8.3 4.1 -9.6 27 5.7 SW 6 7 3 4 1016.2 1015.5 0.0
16/04:00am 8.3 4.1 -7.4 32 5.3 SW 7 9 4 5 1016.1 1015.4 0.0
16/03:30am 8.4 4.4 -8.1 30 5.4 SW 6 7 3 4 1016.1 1015.4 0.0
16/03:00am 7.2 4.5 -5.5 40 4.4 CALM 0 9 0 5 1016.2 1015.5 0.0
16/02:30am 10.1 7.2 -8.5 26 6.2 CALM 0 0 0 0 1016.3 1015.6 0.0
16/02:00am 9.6 6.6 -9.9 24 6.3 CALM 0 0 0 0 1016.3 1015.6 0.0
16/01:30am 10.3 7.2 -10.5 22 6.6 CALM 0 0 0 0 1016.5 1015.8 0.0
16/01:00am 11.4 6.7 -9.0 23 6.8 E 9 17 5 9 1016.7 1016.0 0.0
16/12:30am 9.9 6.9 -9.7 24 6.3 CALM 0 4 0 2 1016.7 1016.0 0.0
16/12:00am 11.8 8.9 -8.6 23 6.9 CALM 0 0 0 0 1016.7 1016.0 0.0
 
Date/Time
CST
Temp
°C
App
Temp
°C
Dew
Point
°C
Rel
Hum
%
Delta-T
°C
Wind Press
QNH
hPa
Press
MSL
hPa
Rain since
9am
mm
Dir  Spd
km/h
Gust
km/h
Spd
kts
Gust
kts
15/11:30pm 11.3 8.5 -7.0 27 6.4 CALM 0 0 0 0 1016.8 1016.1 0.0
15/11:00pm 12.2 8.8 -5.7 28 6.5 ENE 4 6 2 3 1017.0 1016.3 0.0
15/10:30pm 15.8 11.4 -9.9 16 8.9 ENE 7 9 4 5 1017.1 1016.4 0.0
15/10:00pm 16.1 13.1 -9.7 16 9.1 CALM 0 0 0 0 1017.2 1016.5 0.0
15/09:30pm 16.4 13.3 -10.3 15 9.3 CALM 0 0 0 0 1017.2 1016.5 0.0
15/09:00pm 17.4 14.5 -8.6 16 9.5 CALM 0 0 0 0 1017.2 1016.5 0.0
15/08:30pm 18.2 14.4 -9.7 14 10.0 SW 4 7 2 4 1017.0 1016.3 0.0
15/08:00pm 18.8 14.4 -10.2 13 10.4 S 7 9 4 5 1016.6 1015.9 0.0
15/07:30pm 20.0 15.6 -10.2 12 11.0 SSE 7 9 4 5 1016.2 1015.5 0.0
15/07:00pm 21.5 17.2 -9.1 12 11.6 SSW 7 9 4 5 1015.8 1015.1 0.0
15/06:30pm 22.6 18.3 -9.3 11 12.2 SSW 7 9 4 5 1015.5 1014.8 0.0
15/06:00pm 24.5 19.8 -9.1 10 13.1 SSW 9 11 5 6 1015.4 1014.7 0.0
15/05:30pm 26.8 22.1 -8.7 9 14.3 SW 9 13 5 7 1015.4 1014.7 0.0
15/05:00pm 27.9 23.7 -7.9 9 14.8 SSW 7 13 4 7 1015.4 1014.7 0.0
15/04:30pm 28.0 22.9 -9.3 8 15.0 SSW 11 15 6 8 1015.6 1014.9 0.0
15/04:00pm 28.7 24.0 -8.8 8 15.4 SW 9 17 5 9 1015.7 1015.0 0.0
15/03:30pm 28.7 24.4 -8.8 8 15.3 NE 7 11 4 6 1015.9 1015.2 0.0
15/03:00pm 28.4 23.8 -7.5 9 15.0 NNW 9 13 5 7 1016.2 1015.5 0.0
15/02:30pm 28.1 23.5 -7.7 9 14.8 W 9 19 5 10 1016.7 1016.0 0.0
15/02:00pm 28.2 23.6 -7.6 9 14.9 NNE 9 15 5 8 1017.1 1016.4 0.0
15/01:30pm 28.0 23.4 -7.8 9 14.8 N 9 17 5 9 1017.7 1017.0 0.0
15/01:00pm 27.9 23.3 -7.9 9 14.8 SW 9 13 5 7 1018.3 1017.7 0.0
15/12:30pm 26.6 22.0 -7.5 10 14.0 SSW 9 17 5 9 1018.8 1018.2 0.0
15/12:00pm 26.8 22.3 -7.3 10 14.1 SSW 9 15 5 8 1019.3 1018.7 0.0
15/11:30am 25.6 21.0 -8.2 10 13.5 SSE 9 15 5 8 1019.9 1019.2 0.0
15/11:00am 25.7 21.1 -8.2 10 13.6 S 9 13 5 7 1020.3 1019.6 0.0
15/10:30am 25.2 20.6 -8.5 10 13.4 ESE 9 15 5 8 1020.6 1019.9 0.0
15/10:00am 23.2 18.6 -7.7 12 12.2 ESE 9 13 5 7 1020.8 1020.1 0.0
15/09:30am 20.9 16.7 -7.6 14 11.0 ESE 7 13 4 7 1020.9 1020.2 0.0
15/09:00am 16.0 11.6 -10.6 15 9.2 SSW 7 11 4 6 1020.9 1020.2 0.0
15/08:30am 12.4 7.9 -11.2 18 7.6 SW 7 9 4 5 1020.7 1020.0 0.0
15/08:00am 9.8 4.9 -12.1 20 6.7 SW 9 11 5 6 1020.5 1019.8 0.0
15/07:30am 6.9 2.0 -11.7 25 5.5 SSW 9 15 5 8 1020.1 1019.4 0.0
15/07:00am 4.0 0.2 -9.7 36 4.3 SSW 4 9 2 5 1019.9 1019.2 0.0

Other Formats:

Comma delimited format used in spreadsheet applications
http://www.bom.gov.au/fwo/IDD60801/IDD60801.94255.axf

JavaScript Object Notation format (JSON) in row-major order
http://www.bom.gov.au/fwo/IDD60801/IDD60801.94255.json